sensor_id;sensor_type;location;lat;lon;timestamp;temperature;humidity
78463;SHT31;67756;51.982;5.648;2023-02-28T00:00:44;5.4;55.7
78463;SHT31;67756;51.982;5.648;2023-02-28T00:03:14;5.4;56.1
78463;SHT31;67756;51.982;5.648;2023-02-28T00:05:43;5.4;56.1
78463;SHT31;67756;51.982;5.648;2023-02-28T00:08:15;5.4;56.4
78463;SHT31;67756;51.982;5.648;2023-02-28T00:10:44;5.3;56.2
78463;SHT31;67756;51.982;5.648;2023-02-28T00:13:14;5.3;56.7
78463;SHT31;67756;51.982;5.648;2023-02-28T00:15:44;5.4;56.7
78463;SHT31;67756;51.982;5.648;2023-02-28T00:18:13;5.4;56.5
78463;SHT31;67756;51.982;5.648;2023-02-28T00:20:42;5.4;56.3
78463;SHT31;67756;51.982;5.648;2023-02-28T00:23:12;5.4;56.3
78463;SHT31;67756;51.982;5.648;2023-02-28T00:25:43;5.4;56.2
78463;SHT31;67756;51.982;5.648;2023-02-28T00:28:14;5.4;56.6
78463;SHT31;67756;51.982;5.648;2023-02-28T00:30:43;5.5;56.9
78463;SHT31;67756;51.982;5.648;2023-02-28T00:33:13;5.5;56.6
78463;SHT31;67756;51.982;5.648;2023-02-28T00:35:43;5.5;57.0
78463;SHT31;67756;51.982;5.648;2023-02-28T00:38:14;5.6;57.0
78463;SHT31;67756;51.982;5.648;2023-02-28T00:40:46;5.6;56.8
78463;SHT31;67756;51.982;5.648;2023-02-28T00:43:15;5.7;56.7
78463;SHT31;67756;51.982;5.648;2023-02-28T00:45:47;5.7;56.4
78463;SHT31;67756;51.982;5.648;2023-02-28T00:48:16;5.7;56.5
78463;SHT31;67756;51.982;5.648;2023-02-28T00:50:48;5.7;56.3
78463;SHT31;67756;51.982;5.648;2023-02-28T00:53:17;5.7;56.7
78463;SHT31;67756;51.982;5.648;2023-02-28T00:55:49;5.7;56.8
78463;SHT31;67756;51.982;5.648;2023-02-28T00:58:19;5.8;56.5
78463;SHT31;67756;51.982;5.648;2023-02-28T01:00:49;5.8;56.6
78463;SHT31;67756;51.982;5.648;2023-02-28T01:03:20;5.8;56.9
78463;SHT31;67756;51.982;5.648;2023-02-28T01:05:50;5.8;56.2
78463;SHT31;67756;51.982;5.648;2023-02-28T01:08:21;5.8;56.2
78463;SHT31;67756;51.982;5.648;2023-02-28T01:10:51;5.8;56.7
78463;SHT31;67756;51.982;5.648;2023-02-28T01:13:21;5.8;57.1
78463;SHT31;67756;51.982;5.648;2023-02-28T01:15:52;5.9;57.0
78463;SHT31;67756;51.982;5.648;2023-02-28T01:18:24;5.9;57.0
78463;SHT31;67756;51.982;5.648;2023-02-28T01:20:54;5.9;56.7
78463;SHT31;67756;51.982;5.648;2023-02-28T01:23:26;5.9;56.5
78463;SHT31;67756;51.982;5.648;2023-02-28T01:25:56;5.9;56.5
78463;SHT31;67756;51.982;5.648;2023-02-28T01:28:25;6.0;56.3
78463;SHT31;67756;51.982;5.648;2023-02-28T01:30:57;6.0;56.7
78463;SHT31;67756;51.982;5.648;2023-02-28T01:33:27;6.0;56.4
78463;SHT31;67756;51.982;5.648;2023-02-28T01:36:01;6.0;56.8
78463;SHT31;67756;51.982;5.648;2023-02-28T01:38:33;6.0;56.8
78463;SHT31;67756;51.982;5.648;2023-02-28T01:41:03;6.0;56.8
78463;SHT31;67756;51.982;5.648;2023-02-28T01:43:59;6.0;57.1
78463;SHT31;67756;51.982;5.648;2023-02-28T01:46:32;6.0;57.4
78463;SHT31;67756;51.982;5.648;2023-02-28T01:49:06;6.0;57.2
78463;SHT31;67756;51.982;5.648;2023-02-28T01:51:41;6.0;57.2
78463;SHT31;67756;51.982;5.648;2023-02-28T01:54:22;6.0;56.8
78463;SHT31;67756;51.982;5.648;2023-02-28T01:56:56;6.0;56.6
78463;SHT31;67756;51.982;5.648;2023-02-28T01:59:33;6.1;56.6
78463;SHT31;67756;51.982;5.648;2023-02-28T02:02:05;6.1;56.9
78463;SHT31;67756;51.982;5.648;2023-02-28T02:04:38;6.1;56.3
78463;SHT31;67756;51.982;5.648;2023-02-28T02:07:09;6.1;56.4
78463;SHT31;67756;51.982;5.648;2023-02-28T02:09:39;6.1;56.4
78463;SHT31;67756;51.982;5.648;2023-02-28T02:12:23;6.1;56.7
78463;SHT31;67756;51.982;5.648;2023-02-28T02:15:03;6.1;56.2
78463;SHT31;67756;51.982;5.648;2023-02-28T02:17:39;6.1;56.9
78463;SHT31;67756;51.982;5.648;2023-02-28T02:20:32;6.1;56.5
78463;SHT31;67756;51.982;5.648;2023-02-28T02:23:29;6.1;56.3
78463;SHT31;67756;51.982;5.648;2023-02-28T02:26:18;6.1;57.2
78463;SHT31;67756;51.982;5.648;2023-02-28T02:29:11;6.1;56.2
78463;SHT31;67756;51.982;5.648;2023-02-28T02:32:13;6.1;56.7
78463;SHT31;67756;51.982;5.648;2023-02-28T02:34:54;6.2;56.8
78463;SHT31;67756;51.982;5.648;2023-02-28T02:37:31;6.2;56.5
78463;SHT31;67756;51.982;5.648;2023-02-28T02:40:13;6.3;56.0
78463;SHT31;67756;51.982;5.648;2023-02-28T02:42:49;6.3;55.8
78463;SHT31;67756;51.982;5.648;2023-02-28T02:45:27;6.3;56.0
78463;SHT31;67756;51.982;5.648;2023-02-28T02:48:06;6.3;56.2
78463;SHT31;67756;51.982;5.648;2023-02-28T02:50:40;6.3;56.0
78463;SHT31;67756;51.982;5.648;2023-02-28T02:53:17;6.3;56.1
78463;SHT31;67756;51.982;5.648;2023-02-28T02:55:51;6.3;56.0
78463;SHT31;67756;51.982;5.648;2023-02-28T02:58:26;6.3;56.4
78463;SHT31;67756;51.982;5.648;2023-02-28T03:00:59;6.2;55.9
78463;SHT31;67756;51.982;5.648;2023-02-28T03:03:33;6.2;56.4
78463;SHT31;67756;51.982;5.648;2023-02-28T03:06:03;6.2;56.3
78463;SHT31;67756;51.982;5.648;2023-02-28T03:08:37;6.2;56.6
78463;SHT31;67756;51.982;5.648;2023-02-28T03:11:14;6.2;56.8
78463;SHT31;67756;51.982;5.648;2023-02-28T03:13:54;6.2;56.7
78463;SHT31;67756;51.982;5.648;2023-02-28T03:16:36;6.2;56.3
78463;SHT31;67756;51.982;5.648;2023-02-28T03:19:30;6.3;56.2
78463;SHT31;67756;51.982;5.648;2023-02-28T03:22:19;6.3;56.1
78463;SHT31;67756;51.982;5.648;2023-02-28T03:25:01;6.3;56.8
78463;SHT31;67756;51.982;5.648;2023-02-28T03:27:38;6.3;56.1
78463;SHT31;67756;51.982;5.648;2023-02-28T03:30:19;6.3;56.4
78463;SHT31;67756;51.982;5.648;2023-02-28T03:32:56;6.3;56.3
78463;SHT31;67756;51.982;5.648;2023-02-28T03:35:30;6.3;56.0
78463;SHT31;67756;51.982;5.648;2023-02-28T03:38:10;6.3;56.5
78463;SHT31;67756;51.982;5.648;2023-02-28T03:40:48;6.3;56.3
78463;SHT31;67756;51.982;5.648;2023-02-28T03:43:24;6.2;56.1
78463;SHT31;67756;51.982;5.648;2023-02-28T03:45:56;6.2;55.8
78463;SHT31;67756;51.982;5.648;2023-02-28T03:48:35;6.2;56.5
78463;SHT31;67756;51.982;5.648;2023-02-28T03:51:12;6.2;56.8
78463;SHT31;67756;51.982;5.648;2023-02-28T03:53:49;6.3;56.2
78463;SHT31;67756;51.982;5.648;2023-02-28T03:56:25;6.3;55.0
78463;SHT31;67756;51.982;5.648;2023-02-28T03:59:00;6.3;54.3
78463;SHT31;67756;51.982;5.648;2023-02-28T04:01:35;6.3;54.4
78463;SHT31;67756;51.982;5.648;2023-02-28T04:04:07;6.3;54.4
78463;SHT31;67756;51.982;5.648;2023-02-28T04:06:39;6.3;54.6
78463;SHT31;67756;51.982;5.648;2023-02-28T04:09:11;6.3;53.3
78463;SHT31;67756;51.982;5.648;2023-02-28T04:11:42;6.3;52.7
78463;SHT31;67756;51.982;5.648;2023-02-28T04:14:12;6.3;52.3
78463;SHT31;67756;51.982;5.648;2023-02-28T04:16:44;6.3;52.2
78463;SHT31;67756;51.982;5.648;2023-02-28T04:19:14;6.3;51.8
78463;SHT31;67756;51.982;5.648;2023-02-28T04:21:46;6.3;51.8
78463;SHT31;67756;51.982;5.648;2023-02-28T04:24:20;6.3;51.8
78463;SHT31;67756;51.982;5.648;2023-02-28T04:26:51;6.3;53.0
78463;SHT31;67756;51.982;5.648;2023-02-28T04:29:24;6.3;52.8
78463;SHT31;67756;51.982;5.648;2023-02-28T04:31:55;6.3;52.7
78463;SHT31;67756;51.982;5.648;2023-02-28T04:34:27;6.3;53.2
78463;SHT31;67756;51.982;5.648;2023-02-28T04:36:59;6.3;53.8
78463;SHT31;67756;51.982;5.648;2023-02-28T04:39:34;6.2;52.8
78463;SHT31;67756;51.982;5.648;2023-02-28T04:42:04;6.2;53.2
78463;SHT31;67756;51.982;5.648;2023-02-28T04:44:34;6.2;53.5
78463;SHT31;67756;51.982;5.648;2023-02-28T04:47:03;6.2;54.4
78463;SHT31;67756;51.982;5.648;2023-02-28T04:49:33;6.2;54.2
78463;SHT31;67756;51.982;5.648;2023-02-28T04:52:02;6.2;53.7
78463;SHT31;67756;51.982;5.648;2023-02-28T04:54:34;6.2;54.1
78463;SHT31;67756;51.982;5.648;2023-02-28T04:57:05;6.1;54.2
78463;SHT31;67756;51.982;5.648;2023-02-28T04:59:35;6.1;54.5
78463;SHT31;67756;51.982;5.648;2023-02-28T05:02:06;6.1;54.6
78463;SHT31;67756;51.982;5.648;2023-02-28T05:04:36;6.1;55.3
78463;SHT31;67756;51.982;5.648;2023-02-28T05:07:05;6.1;55.2
78463;SHT31;67756;51.982;5.648;2023-02-28T05:09:37;6.1;55.0
78463;SHT31;67756;51.982;5.648;2023-02-28T05:12:08;6.1;55.4
78463;SHT31;67756;51.982;5.648;2023-02-28T05:14:38;6.1;54.9
78463;SHT31;67756;51.982;5.648;2023-02-28T05:17:08;6.1;54.4
78463;SHT31;67756;51.982;5.648;2023-02-28T05:19:38;6.1;54.8
78463;SHT31;67756;51.982;5.648;2023-02-28T05:22:13;6.1;55.3
78463;SHT31;67756;51.982;5.648;2023-02-28T05:24:43;6.1;54.7
78463;SHT31;67756;51.982;5.648;2023-02-28T05:27:13;6.1;55.1
78463;SHT31;67756;51.982;5.648;2023-02-28T05:29:42;6.1;55.3
78463;SHT31;67756;51.982;5.648;2023-02-28T05:32:12;6.0;55.4
78463;SHT31;67756;51.982;5.648;2023-02-28T05:34:42;6.0;55.0
78463;SHT31;67756;51.982;5.648;2023-02-28T05:37:13;6.0;55.4
78463;SHT31;67756;51.982;5.648;2023-02-28T05:39:43;6.0;55.2
78463;SHT31;67756;51.982;5.648;2023-02-28T05:42:13;6.0;55.0
78463;SHT31;67756;51.982;5.648;2023-02-28T05:44:42;6.0;55.0
78463;SHT31;67756;51.982;5.648;2023-02-28T05:47:12;6.0;55.7
78463;SHT31;67756;51.982;5.648;2023-02-28T05:49:42;6.1;55.3
78463;SHT31;67756;51.982;5.648;2023-02-28T05:52:12;6.1;55.8
78463;SHT31;67756;51.982;5.648;2023-02-28T05:54:42;6.1;56.0
78463;SHT31;67756;51.982;5.648;2023-02-28T05:57:14;6.1;55.7
78463;SHT31;67756;51.982;5.648;2023-02-28T05:59:44;6.1;55.5
78463;SHT31;67756;51.982;5.648;2023-02-28T06:02:16;6.1;55.4
78463;SHT31;67756;51.982;5.648;2023-02-28T06:04:45;6.1;55.3
78463;SHT31;67756;51.982;5.648;2023-02-28T06:07:15;6.1;55.0
78463;SHT31;67756;51.982;5.648;2023-02-28T06:09:45;6.0;55.2
78463;SHT31;67756;51.982;5.648;2023-02-28T06:12:14;6.0;55.0
78463;SHT31;67756;51.982;5.648;2023-02-28T06:14:44;6.0;55.2
78463;SHT31;67756;51.982;5.648;2023-02-28T06:17:14;6.0;55.2
78463;SHT31;67756;51.982;5.648;2023-02-28T06:19:44;6.0;55.5
78463;SHT31;67756;51.982;5.648;2023-02-28T06:22:15;6.0;55.5
78463;SHT31;67756;51.982;5.648;2023-02-28T06:24:45;6.0;54.9
78463;SHT31;67756;51.982;5.648;2023-02-28T06:27:15;6.1;55.7
78463;SHT31;67756;51.982;5.648;2023-02-28T06:29:45;6.1;55.9
78463;SHT31;67756;51.982;5.648;2023-02-28T06:32:14;6.1;56.0
78463;SHT31;67756;51.982;5.648;2023-02-28T06:34:44;6.1;55.8
78463;SHT31;67756;51.982;5.648;2023-02-28T06:37:13;6.1;55.6
78463;SHT31;67756;51.982;5.648;2023-02-28T06:39:44;6.1;55.8
78463;SHT31;67756;51.982;5.648;2023-02-28T06:42:13;6.1;55.7
78463;SHT31;67756;51.982;5.648;2023-02-28T06:44:43;6.1;55.8
78463;SHT31;67756;51.982;5.648;2023-02-28T06:47:13;6.1;55.3
78463;SHT31;67756;51.982;5.648;2023-02-28T06:49:44;6.1;55.4
78463;SHT31;67756;51.982;5.648;2023-02-28T06:52:14;6.1;55.7
78463;SHT31;67756;51.982;5.648;2023-02-28T06:54:44;6.1;55.9
78463;SHT31;67756;51.982;5.648;2023-02-28T06:57:16;6.1;55.5
78463;SHT31;67756;51.982;5.648;2023-02-28T06:59:45;6.1;55.4
78463;SHT31;67756;51.982;5.648;2023-02-28T07:02:15;6.1;55.5
78463;SHT31;67756;51.982;5.648;2023-02-28T07:04:45;6.1;56.0
78463;SHT31;67756;51.982;5.648;2023-02-28T07:07:14;6.2;55.5
78463;SHT31;67756;51.982;5.648;2023-02-28T07:09:44;6.2;55.3
78463;SHT31;67756;51.982;5.648;2023-02-28T07:12:13;6.2;55.5
78463;SHT31;67756;51.982;5.648;2023-02-28T07:14:43;6.2;54.4
78463;SHT31;67756;51.982;5.648;2023-02-28T07:17:13;6.2;55.0
78463;SHT31;67756;51.982;5.648;2023-02-28T07:19:43;6.3;55.7
78463;SHT31;67756;51.982;5.648;2023-02-28T07:22:14;6.3;54.7
78463;SHT31;67756;51.982;5.648;2023-02-28T07:24:46;6.3;53.1
78463;SHT31;67756;51.982;5.648;2023-02-28T07:27:15;6.3;52.7
78463;SHT31;67756;51.982;5.648;2023-02-28T07:29:50;6.3;54.1
78463;SHT31;67756;51.982;5.648;2023-02-28T07:32:20;6.3;53.0
78463;SHT31;67756;51.982;5.648;2023-02-28T07:34:50;6.3;53.6
78463;SHT31;67756;51.982;5.648;2023-02-28T07:37:20;6.3;51.6
78463;SHT31;67756;51.982;5.648;2023-02-28T07:39:49;6.3;51.9
78463;SHT31;67756;51.982;5.648;2023-02-28T07:42:19;6.4;52.4
78463;SHT31;67756;51.982;5.648;2023-02-28T07:44:48;6.5;51.6
78463;SHT31;67756;51.982;5.648;2023-02-28T07:47:19;6.5;50.4
78463;SHT31;67756;51.982;5.648;2023-02-28T07:49:49;6.5;49.9
78463;SHT31;67756;51.982;5.648;2023-02-28T07:52:18;6.5;50.1
78463;SHT31;67756;51.982;5.648;2023-02-28T07:54:48;6.6;50.3
78463;SHT31;67756;51.982;5.648;2023-02-28T07:57:18;6.6;50.1
78463;SHT31;67756;51.982;5.648;2023-02-28T07:59:47;6.6;50.2
78463;SHT31;67756;51.982;5.648;2023-02-28T08:02:18;6.6;48.8
78463;SHT31;67756;51.982;5.648;2023-02-28T08:04:47;6.7;46.8
78463;SHT31;67756;51.982;5.648;2023-02-28T08:07:18;6.7;47.0
78463;SHT31;67756;51.982;5.648;2023-02-28T08:09:48;6.7;47.0
78463;SHT31;67756;51.982;5.648;2023-02-28T08:12:17;6.7;46.3
78463;SHT31;67756;51.982;5.648;2023-02-28T08:14:47;6.7;47.2
78463;SHT31;67756;51.982;5.648;2023-02-28T08:17:17;6.8;44.3
78463;SHT31;67756;51.982;5.648;2023-02-28T08:19:49;6.8;43.7
78463;SHT31;67756;51.982;5.648;2023-02-28T08:22:18;6.9;41.3
78463;SHT31;67756;51.982;5.648;2023-02-28T08:24:48;7.0;38.4
78463;SHT31;67756;51.982;5.648;2023-02-28T08:27:17;7.1;38.9
78463;SHT31;67756;51.982;5.648;2023-02-28T08:29:47;7.1;37.3
78463;SHT31;67756;51.982;5.648;2023-02-28T08:32:16;7.1;35.9
78463;SHT31;67756;51.982;5.648;2023-02-28T08:34:46;7.1;36.2
78463;SHT31;67756;51.982;5.648;2023-02-28T08:37:15;7.2;37.2
78463;SHT31;67756;51.982;5.648;2023-02-28T08:39:45;7.1;36.9
78463;SHT31;67756;51.982;5.648;2023-02-28T08:42:14;7.1;35.2
78463;SHT31;67756;51.982;5.648;2023-02-28T08:44:44;7.1;35.7
78463;SHT31;67756;51.982;5.648;2023-02-28T08:47:14;7.1;36.0
78463;SHT31;67756;51.982;5.648;2023-02-28T08:49:43;7.1;35.7
78463;SHT31;67756;51.982;5.648;2023-02-28T08:52:13;7.0;34.9
78463;SHT31;67756;51.982;5.648;2023-02-28T08:54:43;7.0;34.6
78463;SHT31;67756;51.982;5.648;2023-02-28T08:57:12;7.0;35.1
78463;SHT31;67756;51.982;5.648;2023-02-28T08:59:42;6.9;35.4
78463;SHT31;67756;51.982;5.648;2023-02-28T09:02:12;6.9;36.8
78463;SHT31;67756;51.982;5.648;2023-02-28T09:04:42;6.9;36.2
78463;SHT31;67756;51.982;5.648;2023-02-28T09:07:12;6.9;39.1
78463;SHT31;67756;51.982;5.648;2023-02-28T09:09:42;6.9;35.5
78463;SHT31;67756;51.982;5.648;2023-02-28T09:12:17;6.9;34.3
78463;SHT31;67756;51.982;5.648;2023-02-28T09:14:46;7.0;33.9
78463;SHT31;67756;51.982;5.648;2023-02-28T09:17:16;7.0;34.0
78463;SHT31;67756;51.982;5.648;2023-02-28T09:19:47;7.0;33.5
78463;SHT31;67756;51.982;5.648;2023-02-28T09:22:17;6.9;34.6
78463;SHT31;67756;51.982;5.648;2023-02-28T09:24:46;6.9;34.6
78463;SHT31;67756;51.982;5.648;2023-02-28T09:27:16;6.9;34.0
78463;SHT31;67756;51.982;5.648;2023-02-28T09:29:46;6.9;33.8
78463;SHT31;67756;51.982;5.648;2023-02-28T09:32:15;7.0;32.4
78463;SHT31;67756;51.982;5.648;2023-02-28T09:34:47;7.0;32.3
78463;SHT31;67756;51.982;5.648;2023-02-28T09:37:16;7.0;33.1
78463;SHT31;67756;51.982;5.648;2023-02-28T09:39:46;7.0;32.2
78463;SHT31;67756;51.982;5.648;2023-02-28T09:42:25;7.1;32.6
78463;SHT31;67756;51.982;5.648;2023-02-28T09:45:00;7.1;33.1
78463;SHT31;67756;51.982;5.648;2023-02-28T09:47:32;7.1;33.2
78463;SHT31;67756;51.982;5.648;2023-02-28T09:50:29;7.2;32.7
78463;SHT31;67756;51.982;5.648;2023-02-28T09:52:49;7.2;33.5
78463;SHT31;67756;51.982;5.648;2023-02-28T09:55:28;7.2;35.0
78463;SHT31;67756;51.982;5.648;2023-02-28T09:58:00;7.3;35.6
78463;SHT31;67756;51.982;5.648;2023-02-28T10:00:33;7.3;33.6
78463;SHT31;67756;51.982;5.648;2023-02-28T10:03:19;7.4;33.7
78463;SHT31;67756;51.982;5.648;2023-02-28T10:05:56;7.5;33.5
78463;SHT31;67756;51.982;5.648;2023-02-28T10:08:36;7.5;33.0
78463;SHT31;67756;51.982;5.648;2023-02-28T10:11:12;7.6;31.8
78463;SHT31;67756;51.982;5.648;2023-02-28T10:13:51;7.6;32.1
78463;SHT31;67756;51.982;5.648;2023-02-28T10:16:30;7.7;31.6
78463;SHT31;67756;51.982;5.648;2023-02-28T10:19:04;7.9;31.2
78463;SHT31;67756;51.982;5.648;2023-02-28T10:21:40;8.1;32.5
78463;SHT31;67756;51.982;5.648;2023-02-28T10:24:23;8.3;31.5
78463;SHT31;67756;51.982;5.648;2023-02-28T10:27:00;8.5;31.0
78463;SHT31;67756;51.982;5.648;2023-02-28T10:29:32;8.6;30.3
78463;SHT31;67756;51.982;5.648;2023-02-28T10:32:03;8.7;30.2
78463;SHT31;67756;51.982;5.648;2023-02-28T10:34:33;8.8;31.2
78463;SHT31;67756;51.982;5.648;2023-02-28T10:37:03;8.9;32.4
78463;SHT31;67756;51.982;5.648;2023-02-28T10:39:39;9.0;32.9
78463;SHT31;67756;51.982;5.648;2023-02-28T10:42:21;9.2;30.6
78463;SHT31;67756;51.982;5.648;2023-02-28T10:45:11;9.5;30.1
78463;SHT31;67756;51.982;5.648;2023-02-28T10:47:54;9.7;30.3
78463;SHT31;67756;51.982;5.648;2023-02-28T10:50:30;9.9;30.1
78463;SHT31;67756;51.982;5.648;2023-02-28T10:53:25;10.0;29.4
78463;SHT31;67756;51.982;5.648;2023-02-28T10:56:02;10.0;31.4
78463;SHT31;67756;51.982;5.648;2023-02-28T10:59:00;10.1;30.8
78463;SHT31;67756;51.982;5.648;2023-02-28T11:01:39;10.2;30.0
78463;SHT31;67756;51.982;5.648;2023-02-28T11:04:20;10.3;30.6
78463;SHT31;67756;51.982;5.648;2023-02-28T11:07:00;10.3;30.9
78463;SHT31;67756;51.982;5.648;2023-02-28T11:09:34;10.4;29.9
78463;SHT31;67756;51.982;5.648;2023-02-28T11:12:20;10.4;29.5
78463;SHT31;67756;51.982;5.648;2023-02-28T11:14:49;10.4;29.9
78463;SHT31;67756;51.982;5.648;2023-02-28T11:17:22;10.4;28.8
78463;SHT31;67756;51.982;5.648;2023-02-28T11:19:56;10.4;28.9
78463;SHT31;67756;51.982;5.648;2023-02-28T11:22:32;10.4;29.3
78463;SHT31;67756;51.982;5.648;2023-02-28T11:25:09;10.5;28.7
78463;SHT31;67756;51.982;5.648;2023-02-28T11:27:48;10.6;30.2
78463;SHT31;67756;51.982;5.648;2023-02-28T11:30:33;10.8;29.1
78463;SHT31;67756;51.982;5.648;2023-02-28T11:33:20;11.2;31.2
78463;SHT31;67756;51.982;5.648;2023-02-28T11:35:51;11.6;29.2
78463;SHT31;67756;51.982;5.648;2023-02-28T11:38:22;11.9;29.1
78463;SHT31;67756;51.982;5.648;2023-02-28T11:41:05;12.2;28.9
78463;SHT31;67756;51.982;5.648;2023-02-28T11:43:57;12.6;26.3
78463;SHT31;67756;51.982;5.648;2023-02-28T11:46:39;12.9;26.4
78463;SHT31;67756;51.982;5.648;2023-02-28T11:49:27;13.1;26.4
78463;SHT31;67756;51.982;5.648;2023-02-28T11:52:04;13.3;26.8
78463;SHT31;67756;51.982;5.648;2023-02-28T11:55:06;13.4;25.7
78463;SHT31;67756;51.982;5.648;2023-02-28T11:57:55;13.6;25.2
78463;SHT31;67756;51.982;5.648;2023-02-28T12:00:43;13.6;25.6
78463;SHT31;67756;51.982;5.648;2023-02-28T12:03:31;13.7;25.1
78463;SHT31;67756;51.982;5.648;2023-02-28T12:06:15;13.8;25.3
78463;SHT31;67756;51.982;5.648;2023-02-28T12:09:02;13.8;24.3
78463;SHT31;67756;51.982;5.648;2023-02-28T12:11:42;13.8;24.4
78463;SHT31;67756;51.982;5.648;2023-02-28T12:14:56;13.9;25.2
78463;SHT31;67756;51.982;5.648;2023-02-28T12:17:45;14.0;24.6
78463;SHT31;67756;51.982;5.648;2023-02-28T12:20:28;14.2;24.6
78463;SHT31;67756;51.982;5.648;2023-02-28T12:23:15;14.5;23.6
78463;SHT31;67756;51.982;5.648;2023-02-28T12:25:55;15.0;23.7
78463;SHT31;67756;51.982;5.648;2023-02-28T12:28:34;15.4;23.7
78463;SHT31;67756;51.982;5.648;2023-02-28T12:31:10;15.9;22.3
78463;SHT31;67756;51.982;5.648;2023-02-28T12:33:47;16.3;20.6
78463;SHT31;67756;51.982;5.648;2023-02-28T12:36:19;16.5;20.0
78463;SHT31;67756;51.982;5.648;2023-02-28T12:38:55;16.6;20.1
78463;SHT31;67756;51.982;5.648;2023-02-28T12:41:33;16.6;21.5
78463;SHT31;67756;51.982;5.648;2023-02-28T12:44:09;16.7;21.9
78463;SHT31;67756;51.982;5.648;2023-02-28T12:46:44;16.9;21.5
78463;SHT31;67756;51.982;5.648;2023-02-28T12:49:21;17.2;20.7
78463;SHT31;67756;51.982;5.648;2023-02-28T12:51:54;17.5;22.1
78463;SHT31;67756;51.982;5.648;2023-02-28T12:54:30;17.8;20.3
78463;SHT31;67756;51.982;5.648;2023-02-28T12:57:07;18.0;20.1
78463;SHT31;67756;51.982;5.648;2023-02-28T12:59:45;18.3;20.1
78463;SHT31;67756;51.982;5.648;2023-02-28T13:06:45;18.6;19.5
78463;SHT31;67756;51.982;5.648;2023-02-28T13:09:20;18.7;19.8
78463;SHT31;67756;51.982;5.648;2023-02-28T13:11:52;18.9;19.8
78463;SHT31;67756;51.982;5.648;2023-02-28T13:14:29;19.1;18.9
78463;SHT31;67756;51.982;5.648;2023-02-28T13:17:14;19.3;19.3
78463;SHT31;67756;51.982;5.648;2023-02-28T13:19:58;19.5;20.3
78463;SHT31;67756;51.982;5.648;2023-02-28T13:22:39;19.7;19.5
78463;SHT31;67756;51.982;5.648;2023-02-28T13:34:44;20.4;17.4
78463;SHT31;67756;51.982;5.648;2023-02-28T13:37:36;20.5;17.6
78463;SHT31;67756;51.982;5.648;2023-02-28T13:40:30;20.6;18.5
78463;SHT31;67756;51.982;5.648;2023-02-28T13:43:09;20.8;18.0
78463;SHT31;67756;51.982;5.648;2023-02-28T13:46:05;20.9;17.8
78463;SHT31;67756;51.982;5.648;2023-02-28T13:48:37;21.1;18.1
78463;SHT31;67756;51.982;5.648;2023-02-28T13:51:40;21.3;16.9
78463;SHT31;67756;51.982;5.648;2023-02-28T13:54:58;21.4;17.6
78463;SHT31;67756;51.982;5.648;2023-02-28T13:57:48;21.5;17.7
78463;SHT31;67756;51.982;5.648;2023-02-28T14:00:31;21.6;17.9
78463;SHT31;67756;51.982;5.648;2023-02-28T14:03:18;21.7;17.4
78463;SHT31;67756;51.982;5.648;2023-02-28T14:06:17;21.7;16.2
78463;SHT31;67756;51.982;5.648;2023-02-28T14:08:53;21.6;17.0
78463;SHT31;67756;51.982;5.648;2023-02-28T14:11:29;21.4;17.4
78463;SHT31;67756;51.982;5.648;2023-02-28T14:14:01;21.1;17.4
78463;SHT31;67756;51.982;5.648;2023-02-28T14:16:40;20.7;17.6
78463;SHT31;67756;51.982;5.648;2023-02-28T14:19:24;20.4;17.8
78463;SHT31;67756;51.982;5.648;2023-02-28T14:22:02;20.2;17.8
78463;SHT31;67756;51.982;5.648;2023-02-28T14:25:07;20.1;18.0
78463;SHT31;67756;51.982;5.648;2023-02-28T14:27:49;20.0;17.9
78463;SHT31;67756;51.982;5.648;2023-02-28T14:31:40;19.8;18.1
78463;SHT31;67756;51.982;5.648;2023-02-28T14:34:34;19.5;19.0
78463;SHT31;67756;51.982;5.648;2023-02-28T14:37:10;19.1;19.5
78463;SHT31;67756;51.982;5.648;2023-02-28T14:39:44;18.9;18.6
78463;SHT31;67756;51.982;5.648;2023-02-28T14:42:32;18.8;18.8
78463;SHT31;67756;51.982;5.648;2023-02-28T14:45:02;18.6;18.8
78463;SHT31;67756;51.982;5.648;2023-02-28T14:47:35;18.5;19.7
78463;SHT31;67756;51.982;5.648;2023-02-28T14:50:05;18.4;18.7
78463;SHT31;67756;51.982;5.648;2023-02-28T14:52:37;18.2;19.9
78463;SHT31;67756;51.982;5.648;2023-02-28T14:55:15;18.1;19.8
78463;SHT31;67756;51.982;5.648;2023-02-28T14:57:54;18.0;19.7
78463;SHT31;67756;51.982;5.648;2023-02-28T15:00:26;18.0;20.5
78463;SHT31;67756;51.982;5.648;2023-02-28T15:02:58;18.0;20.1
78463;SHT31;67756;51.982;5.648;2023-02-28T15:05:30;18.0;20.3
78463;SHT31;67756;51.982;5.648;2023-02-28T15:08:09;17.9;21.7
78463;SHT31;67756;51.982;5.648;2023-02-28T15:10:43;17.8;20.0
78463;SHT31;67756;51.982;5.648;2023-02-28T15:13:14;17.7;19.0
78463;SHT31;67756;51.982;5.648;2023-02-28T15:15:48;17.4;19.8
78463;SHT31;67756;51.982;5.648;2023-02-28T15:18:29;17.1;20.2
78463;SHT31;67756;51.982;5.648;2023-02-28T15:21:03;16.8;20.5
78463;SHT31;67756;51.982;5.648;2023-02-28T15:23:36;16.5;21.0
78463;SHT31;67756;51.982;5.648;2023-02-28T15:26:07;16.3;21.3
78463;SHT31;67756;51.982;5.648;2023-02-28T15:28:39;16.1;21.6
78463;SHT31;67756;51.982;5.648;2023-02-28T15:31:21;15.9;22.0
78463;SHT31;67756;51.982;5.648;2023-02-28T15:33:58;15.7;21.8
78463;SHT31;67756;51.982;5.648;2023-02-28T15:36:33;15.5;22.1
78463;SHT31;67756;51.982;5.648;2023-02-28T15:39:19;15.3;22.8
78463;SHT31;67756;51.982;5.648;2023-02-28T15:41:49;15.2;22.5
78463;SHT31;67756;51.982;5.648;2023-02-28T15:44:24;15.0;23.7
78463;SHT31;67756;51.982;5.648;2023-02-28T15:47:02;14.9;24.1
78463;SHT31;67756;51.982;5.648;2023-02-28T15:49:39;14.8;23.1
78463;SHT31;67756;51.982;5.648;2023-02-28T15:52:13;14.7;22.8
78463;SHT31;67756;51.982;5.648;2023-02-28T15:54:46;14.6;23.6
78463;SHT31;67756;51.982;5.648;2023-02-28T15:57:20;14.5;24.2
78463;SHT31;67756;51.982;5.648;2023-02-28T15:59:54;14.4;23.6
78463;SHT31;67756;51.982;5.648;2023-02-28T16:02:32;14.3;24.6
78463;SHT31;67756;51.982;5.648;2023-02-28T16:05:22;14.2;25.1
78463;SHT31;67756;51.982;5.648;2023-02-28T16:07:56;14.1;24.2
78463;SHT31;67756;51.982;5.648;2023-02-28T16:10:28;14.0;24.4
78463;SHT31;67756;51.982;5.648;2023-02-28T16:12:58;14.0;25.0
78463;SHT31;67756;51.982;5.648;2023-02-28T16:15:32;13.9;24.9
78463;SHT31;67756;51.982;5.648;2023-02-28T16:18:11;13.8;25.7
78463;SHT31;67756;51.982;5.648;2023-02-28T16:20:41;13.7;26.1
78463;SHT31;67756;51.982;5.648;2023-02-28T16:23:12;13.7;25.7
78463;SHT31;67756;51.982;5.648;2023-02-28T16:25:44;13.6;26.6
78463;SHT31;67756;51.982;5.648;2023-02-28T16:28:19;13.6;26.0
78463;SHT31;67756;51.982;5.648;2023-02-28T16:30:51;13.5;26.7
78463;SHT31;67756;51.982;5.648;2023-02-28T16:33:21;13.4;27.0
78463;SHT31;67756;51.982;5.648;2023-02-28T16:35:51;13.4;26.4
78463;SHT31;67756;51.982;5.648;2023-02-28T16:38:20;13.3;26.3
78463;SHT31;67756;51.982;5.648;2023-02-28T16:40:55;13.3;26.8
78463;SHT31;67756;51.982;5.648;2023-02-28T16:43:30;13.3;26.5
78463;SHT31;67756;51.982;5.648;2023-02-28T16:45:59;13.3;26.7
78463;SHT31;67756;51.982;5.648;2023-02-28T16:48:31;13.2;26.7
78463;SHT31;67756;51.982;5.648;2023-02-28T16:51:00;13.1;26.1
78463;SHT31;67756;51.982;5.648;2023-02-28T16:53:31;13.1;26.9
78463;SHT31;67756;51.982;5.648;2023-02-28T16:56:02;13.0;27.1
78463;SHT31;67756;51.982;5.648;2023-02-28T16:58:34;12.9;27.6
78463;SHT31;67756;51.982;5.648;2023-02-28T17:01:04;12.8;26.7
78463;SHT31;67756;51.982;5.648;2023-02-28T17:03:34;12.7;27.4
78463;SHT31;67756;51.982;5.648;2023-02-28T17:06:05;12.7;28.0
78463;SHT31;67756;51.982;5.648;2023-02-28T17:08:37;12.6;27.8
78463;SHT31;67756;51.982;5.648;2023-02-28T17:11:07;12.6;28.4
78463;SHT31;67756;51.982;5.648;2023-02-28T17:13:41;12.6;28.9
78463;SHT31;67756;51.982;5.648;2023-02-28T17:16:17;12.5;29.1